Weather at RAF Winkleigh [CLOSED]

Public forecast

Using degrees Celsius for public forecast. Weather courtesy of forecast.io.

Closest aviation weather report (METAR) to RAF Winkleigh

Closest report is Exeter International Airport, 22.3 nm (41.2 km) ESE. Retrieved 2021/06/19 19:50 UTC (1 hour ago):

EGTE 191950Z VRB02KT 5000 RA SCT003 BKN010 13/13 Q1010

Closest aviation forecast (TAF) to RAF Winkleigh

Forecast is more than 12 hours old.

Closest forecast is Exeter International Airport, 22.3 nm (41.2 km) ESE. Retrieved 2012/04/19 12:15 UTC (9 years ago):

TAF TAF EGTE 191401Z 1912/1924 31016KT 9999 SCT030 SCT035 PROB40 TEMPO 1915/1918 7000 SHRA BKN014